createdAt,value
2018-01-20T00:00:04.844Z,-60
2018-01-20T00:02:33.570Z,-61
2018-01-20T00:05:02.496Z,-61
2018-01-20T00:07:31.336Z,-61
2018-01-20T00:10:29.545Z,-60
2018-01-20T00:12:58.021Z,-60
2018-01-20T00:15:26.504Z,-60
2018-01-20T00:17:59.941Z,-60
2018-01-20T00:20:28.419Z,-62
2018-01-20T00:23:00.379Z,-59
2018-01-20T00:25:29.071Z,-59
2018-01-20T00:27:58.165Z,-59
2018-01-20T00:30:27.569Z,-59
2018-01-20T00:32:56.099Z,-60
2018-01-20T00:35:25.351Z,-59
2018-01-20T00:37:53.832Z,-59
2018-01-20T00:40:22.620Z,-60
2018-01-20T00:42:51.129Z,-62
2018-01-20T00:45:19.588Z,-59
2018-01-20T00:47:48.092Z,-60
2018-01-20T00:50:16.856Z,-59
2018-01-20T00:52:45.337Z,-61
2018-01-20T00:55:13.811Z,-60
2018-01-20T00:57:42.309Z,-60
2018-01-20T01:00:10.780Z,-61
2018-01-20T01:02:39.433Z,-60
2018-01-20T01:05:08.337Z,-62
2018-01-20T01:07:36.976Z,-61
2018-01-20T01:10:06.593Z,-61
2018-01-20T01:12:35.841Z,-60
2018-01-20T01:15:04.828Z,-60
2018-01-20T01:17:33.383Z,-60
2018-01-20T01:20:02.213Z,-61
2018-01-20T01:22:30.787Z,-60
2018-01-20T01:24:59.485Z,-59
2018-01-20T01:27:27.956Z,-60
2018-01-20T01:29:56.454Z,-60
2018-01-20T01:32:24.938Z,-60
2018-01-20T01:34:53.790Z,-61
2018-01-20T01:37:22.274Z,-61
2018-01-20T01:39:50.818Z,-61
2018-01-20T01:42:19.321Z,-60
2018-01-20T01:44:48.100Z,-60
2018-01-20T01:47:17.549Z,-59
2018-01-20T01:49:46.140Z,-61
2018-01-20T01:52:14.581Z,-61
2018-01-20T01:54:43.058Z,-60
2018-01-20T01:57:12.490Z,-61
2018-01-20T01:59:41.248Z,-61
2018-01-20T02:02:09.722Z,-61
2018-01-20T02:04:38.440Z,-61
2018-01-20T02:07:06.925Z,-62
2018-01-20T02:09:35.376Z,-60
2018-01-20T02:12:03.908Z,-60
2018-01-20T02:14:32.381Z,-60
2018-01-20T02:17:01.075Z,-60
2018-01-20T02:19:29.818Z,-60
2018-01-20T02:21:58.550Z,-62
2018-01-20T02:24:27.236Z,-61
2018-01-20T02:26:55.973Z,-60
2018-01-20T02:29:25.428Z,-61
2018-01-20T02:31:54.032Z,-60
2018-01-20T02:34:22.473Z,-60
2018-01-20T02:36:51.104Z,-60
2018-01-20T02:39:19.604Z,-60
2018-01-20T02:41:48.797Z,-61
2018-01-20T02:44:17.292Z,-62
2018-01-20T02:46:46.001Z,-61
2018-01-20T02:49:14.572Z,-60
2018-01-20T02:51:43.436Z,-59
2018-01-20T02:54:12.188Z,-61
2018-01-20T02:56:40.897Z,-60
2018-01-20T02:59:09.763Z,-60
2018-01-20T03:01:38.251Z,-60
2018-01-20T03:04:07.115Z,-60
2018-01-20T03:06:36.436Z,-60
2018-01-20T03:09:05.654Z,-59
2018-01-20T03:11:34.253Z,-59
2018-01-20T03:14:02.888Z,-59
2018-01-20T03:16:31.429Z,-60
2018-01-20T03:19:00.625Z,-61
2018-01-20T03:21:29.119Z,-60
2018-01-20T03:23:57.600Z,-61
2018-01-20T03:26:26.061Z,-60
2018-01-20T03:28:55.200Z,-61
2018-01-20T03:31:23.741Z,-61
2018-01-20T03:33:52.599Z,-61
2018-01-20T03:36:21.286Z,-61
2018-01-20T03:38:49.756Z,-61
2018-01-20T03:41:18.217Z,-61
2018-01-20T03:43:46.652Z,-60
2018-01-20T03:46:16.664Z,-60
2018-01-20T03:48:46.216Z,-61
2018-01-20T03:51:14.734Z,-61
2018-01-20T03:53:43.623Z,-61
2018-01-20T03:56:12.137Z,-60
2018-01-20T03:58:40.764Z,-60
2018-01-20T04:01:09.305Z,-60
2018-01-20T04:03:38.189Z,-60
2018-01-20T04:06:06.869Z,-60
2018-01-20T04:08:36.130Z,-61
2018-01-20T04:11:04.912Z,-60
2018-01-20T04:13:33.600Z,-60
2018-01-20T04:16:02.311Z,-60
2018-01-20T04:18:30.756Z,-60
2018-01-20T04:20:59.460Z,-60
2018-01-20T04:23:27.907Z,-60
2018-01-20T04:25:56.400Z,-61
2018-01-20T04:28:25.144Z,-62
2018-01-20T04:30:53.649Z,-59
2018-01-20T04:33:22.957Z,-61
2018-01-20T04:35:51.407Z,-60
2018-01-20T04:38:19.889Z,-60
2018-01-20T04:40:48.478Z,-60
2018-01-20T04:43:17.412Z,-60
2018-01-20T04:45:46.103Z,-60
2018-01-20T04:48:14.934Z,-60
2018-01-20T04:50:43.657Z,-61
2018-01-20T04:53:13.124Z,-61
2018-01-20T04:55:42.014Z,-62
2018-01-20T04:58:10.704Z,-61
2018-01-20T05:00:40.077Z,-59
2018-01-20T05:03:08.545Z,-62
2018-01-20T05:05:37.222Z,-62
2018-01-20T05:08:06.843Z,-60
2018-01-20T05:10:35.619Z,-60
2018-01-20T05:13:04.430Z,-61
2018-01-20T05:15:33.145Z,-60
2018-01-20T05:18:01.734Z,-60
2018-01-20T05:20:30.209Z,-60
2018-01-20T05:22:59.560Z,-60
2018-01-20T05:25:28.026Z,-61
2018-01-20T05:27:57.241Z,-61
2018-01-20T05:30:26.097Z,-61
2018-01-20T05:32:56.124Z,-61
2018-01-20T05:35:25.616Z,-60
2018-01-20T05:37:55.140Z,-60
2018-01-20T05:40:24.416Z,-59
2018-01-20T05:42:52.904Z,-59
2018-01-20T05:45:21.377Z,-60
2018-01-20T05:47:50.714Z,-61
2018-01-20T05:50:19.953Z,-61
2018-01-20T05:52:48.464Z,-59
2018-01-20T05:55:18.437Z,-59
2018-01-20T05:57:47.135Z,-60
2018-01-20T06:00:16.037Z,-61
2018-01-20T06:02:44.726Z,-61
2018-01-20T06:05:13.406Z,-60
2018-01-20T06:07:42.183Z,-62
2018-01-20T06:10:10.682Z,-60
2018-01-20T06:12:39.368Z,-60
2018-01-20T06:15:07.953Z,-60
2018-01-20T06:17:36.424Z,-62
2018-01-20T06:20:05.121Z,-64
2018-01-20T06:22:33.990Z,-61
2018-01-20T06:25:02.697Z,-61
2018-01-20T06:27:31.777Z,-61
2018-01-20T06:30:00.464Z,-60
2018-01-20T06:32:29.104Z,-62
2018-01-20T06:34:58.552Z,-62
2018-01-20T06:37:27.256Z,-63
2018-01-20T06:39:55.917Z,-61
2018-01-20T06:42:24.413Z,-61
2018-01-20T06:44:53.212Z,-62
2018-01-20T06:47:21.692Z,-61
2018-01-20T06:49:50.175Z,-60
2018-01-20T06:52:19.374Z,-60
2018-01-20T06:54:48.059Z,-61
2018-01-20T06:57:16.718Z,-62
2018-01-20T06:59:45.305Z,-61
2018-01-20T07:02:13.788Z,-62
2018-01-20T07:04:43.328Z,-61
2018-01-20T07:07:13.332Z,-61
2018-01-20T07:09:41.820Z,-61
2018-01-20T07:12:10.281Z,-62
2018-01-20T07:14:39.165Z,-61
2018-01-20T07:17:07.744Z,-60
2018-01-20T07:19:36.226Z,-60
2018-01-20T07:22:04.702Z,-62
2018-01-20T07:24:34.342Z,-60
2018-01-20T07:27:03.628Z,-61
2018-01-20T07:29:32.534Z,-61
2018-01-20T07:32:00.961Z,-61
2018-01-20T07:34:29.517Z,-60
2018-01-20T07:36:58.943Z,-61
2018-01-20T07:39:28.405Z,-61
2018-01-20T07:41:56.977Z,-61
2018-01-20T07:44:25.545Z,-61
2018-01-20T07:46:54.261Z,-61
2018-01-20T07:49:23.245Z,-61
2018-01-20T07:51:52.012Z,-62
2018-01-20T07:54:20.517Z,-62
2018-01-20T07:56:48.960Z,-61
2018-01-20T07:59:17.444Z,-61
2018-01-20T08:01:46.050Z,-62
2018-01-20T08:04:14.504Z,-62
2018-01-20T08:06:43.001Z,-63
2018-01-20T08:09:11.475Z,-63
2018-01-20T08:11:39.952Z,-63
2018-01-20T08:14:08.516Z,-63
2018-01-20T08:16:36.977Z,-63
2018-01-20T08:19:05.476Z,-61
2018-01-20T08:21:34.688Z,-62
2018-01-20T08:24:03.257Z,-62
2018-01-20T08:26:32.961Z,-62
2018-01-20T08:29:01.463Z,-62
2018-01-20T08:31:30.100Z,-60
2018-01-20T08:33:58.622Z,-59
2018-01-20T08:36:27.138Z,-61
2018-01-20T08:38:55.621Z,-63
2018-01-20T08:41:24.089Z,-61
2018-01-20T08:43:52.548Z,-63
2018-01-20T08:46:21.016Z,-61
2018-01-20T08:48:50.391Z,-61
2018-01-20T08:51:19.465Z,-61
2018-01-20T08:53:47.968Z,-61
2018-01-20T08:56:16.633Z,-61
2018-01-20T08:58:45.279Z,-60
2018-01-20T09:01:13.880Z,-61
2018-01-20T09:03:42.343Z,-61
2018-01-20T09:06:12.018Z,-62
2018-01-20T09:08:41.217Z,-60
2018-01-20T09:11:09.779Z,-60
2018-01-20T09:13:38.245Z,-60
2018-01-20T09:16:06.801Z,-60
2018-01-20T09:18:36.271Z,-60
2018-01-20T09:21:04.861Z,-62
2018-01-20T09:23:33.387Z,-62
2018-01-20T09:26:02.341Z,-60
2018-01-20T09:28:30.837Z,-60
2018-01-20T09:30:59.388Z,-60
2018-01-20T09:33:27.853Z,-60
2018-01-20T09:35:56.532Z,-60
2018-01-20T09:38:25.080Z,-60
2018-01-20T09:40:54.373Z,-60
2018-01-20T09:43:23.020Z,-60
2018-01-20T09:45:51.783Z,-60
2018-01-20T09:48:20.590Z,-60
2018-01-20T09:50:49.116Z,-60
2018-01-20T09:53:17.596Z,-60
2018-01-20T09:55:46.250Z,-60
2018-01-20T09:58:14.937Z,-61
2018-01-20T10:00:44.074Z,-60
2018-01-20T10:03:12.553Z,-60
2018-01-20T10:05:41.748Z,-60
2018-01-20T10:08:10.201Z,-60
2018-01-20T10:10:38.956Z,-60
2018-01-20T10:13:07.640Z,-60
2018-01-20T10:15:37.096Z,-60
2018-01-20T10:18:06.937Z,-60
2018-01-20T10:20:36.367Z,-60
2018-01-20T10:23:05.076Z,-60
2018-01-20T10:25:33.556Z,-60
2018-01-20T10:28:02.229Z,-60
2018-01-20T10:30:31.001Z,-60
2018-01-20T10:32:59.460Z,-61
2018-01-20T10:35:28.709Z,-60
2018-01-20T10:37:57.816Z,-60
2018-01-20T10:40:27.204Z,-60
2018-01-20T10:42:56.036Z,-60
2018-01-20T10:45:24.836Z,-60
2018-01-20T10:47:54.065Z,-60
2018-01-20T10:50:22.751Z,-60
2018-01-20T10:52:51.184Z,-60
2018-01-20T10:55:19.649Z,-60
2018-01-20T10:57:48.368Z,-62
2018-01-20T11:00:18.050Z,-59
2018-01-20T11:02:46.520Z,-61
2018-01-20T11:05:15.010Z,-61
2018-01-20T11:07:43.436Z,-60
2018-01-20T11:10:12.243Z,-61
2018-01-20T11:12:40.688Z,-61
2018-01-20T11:15:10.036Z,-61
2018-01-20T11:17:38.497Z,-61
2018-01-20T11:20:06.971Z,-61
2018-01-20T11:22:35.802Z,-61
2018-01-20T11:25:04.522Z,-61
2018-01-20T11:27:34.402Z,-62
2018-01-20T11:30:02.959Z,-61
2018-01-20T11:32:31.805Z,-61
2018-01-20T11:35:00.257Z,-63
2018-01-20T11:37:28.713Z,-62
2018-01-20T11:39:57.189Z,-62
2018-01-20T11:42:26.039Z,-61
2018-01-20T11:44:54.881Z,-61
2018-01-20T11:47:23.356Z,-61
2018-01-20T11:49:51.940Z,-61
2018-01-20T11:52:20.523Z,-61
2018-01-20T11:54:49.021Z,-62
2018-01-20T11:57:17.495Z,-62
2018-01-20T11:59:46.282Z,-62
2018-01-20T12:02:14.840Z,-62
2018-01-20T12:04:43.385Z,-63
2018-01-20T12:07:12.492Z,-63
2018-01-20T12:09:41.389Z,-62
2018-01-20T12:12:11.339Z,-61
2018-01-20T12:14:39.904Z,-61
2018-01-20T12:17:09.340Z,-61
2018-01-20T12:19:38.046Z,-61
2018-01-20T12:22:06.717Z,-60
2018-01-20T12:24:36.072Z,-60
2018-01-20T12:27:04.832Z,-60
2018-01-20T12:29:33.382Z,-61
2018-01-20T12:32:01.993Z,-61
2018-01-20T12:34:30.777Z,-61
2018-01-20T12:36:59.319Z,-61
2018-01-20T12:39:27.848Z,-61
2018-01-20T12:41:56.529Z,-61
2018-01-20T12:44:25.409Z,-62
2018-01-20T12:46:53.959Z,-60
2018-01-20T12:49:23.600Z,-61
2018-01-20T12:51:52.128Z,-61
2018-01-20T12:54:22.119Z,-62
2018-01-20T12:56:50.668Z,-60
2018-01-20T12:59:19.253Z,-62
2018-01-20T13:01:48.772Z,-62
2018-01-20T13:04:40.076Z,-62
2018-01-20T13:07:08.861Z,-62
2018-01-20T13:09:37.344Z,-60
2018-01-20T13:12:05.928Z,-60
2018-01-20T13:14:34.410Z,-62
2018-01-20T13:17:03.120Z,-65
2018-01-20T13:19:31.590Z,-63
2018-01-20T13:22:00.185Z,-62
2018-01-20T13:24:29.286Z,-60
2018-01-20T13:26:57.793Z,-60
2018-01-20T13:29:26.556Z,-61
2018-01-20T13:31:55.049Z,-60
2018-01-20T13:34:23.573Z,-62
2018-01-20T13:36:52.800Z,-62
2018-01-20T13:39:21.342Z,-62
2018-01-20T13:41:50.808Z,-61
2018-01-20T13:44:19.296Z,-62
2018-01-20T13:46:47.780Z,-64
2018-01-20T13:49:16.517Z,-60
2018-01-20T13:51:45.712Z,-61
2018-01-20T13:54:14.174Z,-60
2018-01-20T13:56:42.894Z,-60
2018-01-20T13:59:11.406Z,-60
2018-01-20T14:01:40.094Z,-60
2018-01-20T14:04:08.761Z,-60
2018-01-20T14:06:37.350Z,-61
2018-01-20T14:09:06.665Z,-61
2018-01-20T14:11:35.130Z,-60
2018-01-20T14:14:03.703Z,-61
2018-01-20T14:16:32.162Z,-60
2018-01-20T14:19:01.413Z,-61
2018-01-20T14:21:29.945Z,-61
2018-01-20T14:23:59.263Z,-61
2018-01-20T14:26:27.737Z,-63
2018-01-20T14:28:56.259Z,-61
2018-01-20T14:31:24.945Z,-61
2018-01-20T14:33:54.143Z,-61
2018-01-20T14:36:22.594Z,-61
2018-01-20T14:38:52.592Z,-61
2018-01-20T14:41:21.774Z,-61
2018-01-20T14:43:50.397Z,-61
2018-01-20T14:46:19.622Z,-60
2018-01-20T14:48:48.090Z,-61
2018-01-20T14:51:16.752Z,-61
2018-01-20T14:53:45.273Z,-62
2018-01-20T14:56:13.853Z,-62
2018-01-20T14:58:42.909Z,-63
2018-01-20T15:01:11.385Z,-63
2018-01-20T15:03:40.120Z,-62
2018-01-20T15:06:08.633Z,-62
2018-01-20T15:08:38.653Z,-63
2018-01-20T15:11:07.394Z,-60
2018-01-20T15:13:35.896Z,-60
2018-01-20T15:16:04.620Z,-60
2018-01-20T15:18:33.877Z,-60
2018-01-20T15:21:02.444Z,-61
2018-01-20T15:23:30.924Z,-61
2018-01-20T15:25:59.549Z,-61
2018-01-20T15:28:28.757Z,-61
2018-01-20T15:30:57.236Z,-61
2018-01-20T15:33:25.712Z,-61
2018-01-20T15:35:54.355Z,-62
2018-01-20T15:38:23.036Z,-62
2018-01-20T15:40:52.463Z,-61
2018-01-20T15:43:20.948Z,-62
2018-01-20T15:45:49.477Z,-62
2018-01-20T15:48:18.688Z,-61
2018-01-20T15:50:47.493Z,-61
2018-01-20T15:53:15.973Z,-61
2018-01-20T15:55:44.452Z,-61
2018-01-20T15:58:13.216Z,-61
2018-01-20T16:00:42.677Z,-62
2018-01-20T16:03:11.363Z,-61
2018-01-20T16:05:40.668Z,-61
2018-01-20T16:08:09.145Z,-61
2018-01-20T16:10:38.533Z,-61
2018-01-20T16:13:07.032Z,-61
2018-01-20T16:15:35.512Z,-61
2018-01-20T16:18:04.114Z,-62
2018-01-20T16:20:32.997Z,-61
2018-01-20T16:23:01.487Z,-61
2018-01-20T16:25:29.947Z,-62
2018-01-20T16:27:58.384Z,-60
2018-01-20T16:30:27.898Z,-60
2018-01-20T16:32:56.372Z,-61
2018-01-20T16:35:24.857Z,-62
2018-01-20T16:37:53.340Z,-61
2018-01-20T16:40:21.872Z,-60
2018-01-20T16:42:50.426Z,-61
2018-01-20T16:45:19.132Z,-60
2018-01-20T16:47:47.606Z,-61
2018-01-20T16:50:16.072Z,-60
2018-01-20T16:52:44.682Z,-61
2018-01-20T16:55:13.337Z,-62
2018-01-20T16:57:41.845Z,-61
2018-01-20T17:00:10.838Z,-61
2018-01-20T17:02:39.322Z,-61
2018-01-20T17:05:08.012Z,-61
2018-01-20T17:07:36.676Z,-61
2018-01-20T17:10:05.168Z,-60
2018-01-20T17:12:33.859Z,-60
2018-01-20T17:15:02.338Z,-59
2018-01-20T17:17:30.844Z,-63
2018-01-20T17:20:00.834Z,-61
2018-01-20T17:22:29.369Z,-62
2018-01-20T17:24:59.032Z,-61
2018-01-20T17:27:27.496Z,-61
2018-01-20T17:29:56.038Z,-62
2018-01-20T17:32:25.322Z,-62
2018-01-20T17:34:53.982Z,-62
2018-01-20T17:37:22.647Z,-61
2018-01-20T17:39:51.151Z,-61
2018-01-20T17:42:20.406Z,-62
2018-01-20T17:44:48.896Z,-62
2018-01-20T17:47:17.501Z,-60
2018-01-20T17:49:46.194Z,-61
2018-01-20T17:52:14.892Z,-61
2018-01-20T17:54:43.514Z,-61
2018-01-20T17:57:12.876Z,-63
2018-01-20T17:59:41.383Z,-62
2018-01-20T18:02:09.897Z,-62
2018-01-20T18:04:39.107Z,-61
2018-01-20T18:07:07.598Z,-61
2018-01-20T18:09:36.077Z,-62
2018-01-20T18:12:04.874Z,-61
2018-01-20T18:14:33.958Z,-63
2018-01-20T18:17:02.502Z,-62
2018-01-20T18:19:30.957Z,-63
2018-01-20T18:21:59.512Z,-62
2018-01-20T18:24:27.988Z,-62
2018-01-20T18:26:56.449Z,-62
2018-01-20T18:29:25.253Z,-62
2018-01-20T18:31:53.756Z,-62
2018-01-20T18:34:22.272Z,-61
2018-01-20T18:36:50.821Z,-61
2018-01-20T18:39:20.139Z,-60
2018-01-20T18:41:48.585Z,-61
2018-01-20T18:44:17.187Z,-62
2018-01-20T18:46:45.869Z,-62
2018-01-20T18:49:14.410Z,-62
2018-01-20T18:51:43.057Z,-63
2018-01-20T18:54:12.136Z,-63
2018-01-20T18:56:40.838Z,-62
2018-01-20T18:59:09.705Z,-61
2018-01-20T19:01:38.181Z,-62
2018-01-20T19:04:06.644Z,-62
2018-01-20T19:06:35.141Z,-61
2018-01-20T19:09:04.697Z,-62
2018-01-20T19:11:33.456Z,-61
2018-01-20T19:14:02.137Z,-61
2018-01-20T19:16:30.826Z,-63
2018-01-20T19:18:59.331Z,-61
2018-01-20T19:21:27.848Z,-62
2018-01-20T19:23:57.312Z,-60
2018-01-20T19:26:25.821Z,-62
2018-01-20T19:28:55.764Z,-60
2018-01-20T19:31:24.700Z,-61
2018-01-20T19:33:53.261Z,-62
2018-01-20T19:36:22.482Z,-60
2018-01-20T19:38:51.177Z,-60
2018-01-20T19:41:19.857Z,-62
2018-01-20T19:43:48.517Z,-60
2018-01-20T19:46:16.997Z,-62
2018-01-20T19:48:46.015Z,-62
2018-01-20T19:51:14.704Z,-60
2018-01-20T19:53:43.179Z,-61
2018-01-20T19:58:55.270Z,-61
2018-01-20T20:01:23.753Z,-60
2018-01-20T20:03:52.268Z,-60
2018-01-20T20:06:20.734Z,-61
2018-01-20T20:08:50.185Z,-60
2018-01-20T20:11:18.673Z,-60
2018-01-20T20:13:47.151Z,-60
2018-01-20T20:16:15.910Z,-61
2018-01-20T20:18:44.428Z,-60
2018-01-20T20:21:13.686Z,-61
2018-01-20T20:23:42.178Z,-60
2018-01-20T20:26:10.751Z,-60
2018-01-20T20:28:39.438Z,-61
2018-01-20T20:31:08.124Z,-60
2018-01-20T20:33:36.791Z,-60
2018-01-20T20:36:05.757Z,-60
2018-01-20T20:38:34.786Z,-60
2018-01-20T20:41:03.312Z,-60
2018-01-20T20:43:31.947Z,-60
2018-01-20T20:46:00.480Z,-61
2018-01-20T20:48:30.451Z,-60
2018-01-20T20:50:59.065Z,-60
2018-01-20T20:53:27.635Z,-61
2018-01-20T20:55:56.321Z,-61
2018-01-20T20:58:24.800Z,-62
2018-01-20T21:00:54.102Z,-62
2018-01-20T21:03:23.172Z,-62
2018-01-20T21:05:51.966Z,-62
2018-01-20T21:08:20.432Z,-62
2018-01-20T21:10:49.139Z,-63
2018-01-20T21:13:17.681Z,-63
2018-01-20T21:15:47.001Z,-62
2018-01-20T21:18:15.627Z,-63
2018-01-20T21:20:44.113Z,-63
2018-01-20T21:23:12.781Z,-62
2018-01-20T21:25:41.313Z,-62
2018-01-20T21:28:10.975Z,-63
2018-01-20T21:30:40.293Z,-62
2018-01-20T21:33:08.790Z,-61
2018-01-20T21:35:37.292Z,-61
2018-01-20T21:38:06.528Z,-61
2018-01-20T21:40:34.984Z,-62
2018-01-20T21:43:03.753Z,-61
2018-01-20T21:45:32.456Z,-62
2018-01-20T21:48:01.519Z,-61
2018-01-20T21:50:29.985Z,-63
2018-01-20T21:52:58.649Z,-64
2018-01-20T21:55:27.151Z,-64
2018-01-20T21:57:55.638Z,-62
2018-01-20T22:00:24.125Z,-63
2018-01-20T22:02:52.799Z,-65
2018-01-20T22:05:21.688Z,-64
2018-01-20T22:07:50.765Z,-65
2018-01-20T22:10:19.266Z,-64
2018-01-20T22:12:47.946Z,-65
2018-01-20T22:15:16.456Z,-63
2018-01-20T22:17:45.110Z,-64
2018-01-20T22:20:14.062Z,-63
2018-01-20T22:22:43.310Z,-64
2018-01-20T22:25:11.983Z,-64
2018-01-20T22:27:40.673Z,-65
2018-01-20T22:30:09.371Z,-63
2018-01-20T22:32:38.109Z,-63
2018-01-20T22:35:07.342Z,-62
2018-01-20T22:37:35.839Z,-66
2018-01-20T22:40:04.801Z,-64
2018-01-20T22:42:33.604Z,-64
2018-01-20T22:45:02.416Z,-64
2018-01-20T22:47:30.983Z,-65
2018-01-20T22:49:59.451Z,-62
2018-01-20T22:52:27.958Z,-64
2018-01-20T22:54:56.435Z,-63
2018-01-20T22:57:25.108Z,-63
2018-01-20T22:59:53.589Z,-62
2018-01-20T23:02:22.296Z,-62
2018-01-20T23:04:50.970Z,-63
2018-01-20T23:07:19.654Z,-63
2018-01-20T23:09:48.333Z,-63
2018-01-20T23:12:16.820Z,-64
2018-01-20T23:14:45.578Z,-64
2018-01-20T23:17:14.876Z,-63
2018-01-20T23:19:44.118Z,-63
2018-01-20T23:22:13.649Z,-64
2018-01-20T23:24:42.300Z,-63
2018-01-20T23:27:10.773Z,-63
2018-01-20T23:29:39.660Z,-63
2018-01-20T23:32:08.358Z,-63
2018-01-20T23:34:36.887Z,-64
2018-01-20T23:37:05.521Z,-63
2018-01-20T23:39:34.226Z,-63
2018-01-20T23:42:03.120Z,-63
2018-01-20T23:44:31.629Z,-65
2018-01-20T23:47:00.285Z,-65
2018-01-20T23:49:28.767Z,-65
2018-01-20T23:51:57.216Z,-64
2018-01-20T23:54:25.705Z,-63
2018-01-20T23:56:54.590Z,-63
2018-01-20T23:59:23.299Z,-63
